UAL1395 KIAH-KTUL
Flight info
| Callsign | UAL1395 |
|---|---|
| Flight time | 1h 1m |
| Altitude | 32000 |
| Route | STYCK8 WTSON BYP TUL |
| Aircraft | B38M/M-SDE1FGHILORVWXY/HB1 |
Departure
| Time | 2026-04-24 07:27 |
|---|---|
| Airport | George Bush Intercontinental Airport (KIAH) |
Arrival
| Time | 2026-04-24 08:28 |
|---|---|
| Airport | Tulsa International Airport (KTUL) |
| Time | Latitude | Longitude | Altitude | Speed | Heading |
|---|---|---|---|---|---|
| 2026-04-24 07:14 | 29.98537 | -95.34060 | 111 ft | 0 kts | 2° |
| 2026-04-24 07:17 | 29.98527 | -95.34061 | 102 ft | 3 kts | 356° |
| 2026-04-24 07:17 | 29.98508 | -95.34056 | 101 ft | 3 kts | 332° |
| 2026-04-24 07:17 | 29.98494 | -95.34043 | 101 ft | 3 kts | 297° |
| 2026-04-24 07:18 | 29.98489 | -95.34022 | 102 ft | 3 kts | 274° |
| 2026-04-24 07:18 | 29.98488 | -95.34007 | 102 ft | 0 kts | 269° |
| 2026-04-24 07:19 | 29.98488 | -95.34009 | 102 ft | 1 kts | 269° |
| 2026-04-24 07:20 | 29.98488 | -95.34027 | 102 ft | 0 kts | 269° |
| 2026-04-24 07:20 | 29.98488 | -95.34030 | 102 ft | 3 kts | 269° |
| 2026-04-24 07:21 | 29.98480 | -95.34062 | 102 ft | 7 kts | 227° |
| 2026-04-24 07:21 | 29.98435 | -95.34069 | 102 ft | 13 kts | 178° |
| 2026-04-24 07:21 | 29.98384 | -95.34081 | 103 ft | 5 kts | 238° |
| 2026-04-24 07:21 | 29.98376 | -95.34160 | 102 ft | 16 kts | 272° |
| 2026-04-24 07:22 | 29.98376 | -95.34299 | 102 ft | 20 kts | 269° |
| 2026-04-24 07:22 | 29.98373 | -95.34388 | 102 ft | 13 kts | 256° |
| 2026-04-24 07:22 | 29.98333 | -95.34484 | 102 ft | 11 kts | 247° |
| 2026-04-24 07:22 | 29.98325 | -95.34587 | 102 ft | 15 kts | 267° |
| 2026-04-24 07:23 | 29.98324 | -95.34766 | 101 ft | 19 kts | 271° |
| 2026-04-24 07:23 | 29.98325 | -95.34925 | 101 ft | 21 kts | 269° |
| 2026-04-24 07:23 | 29.98325 | -95.35044 | 102 ft | 23 kts | 270° |
| 2026-04-24 07:23 | 29.98324 | -95.35160 | 102 ft | 12 kts | 290° |
| 2026-04-24 07:24 | 29.98376 | -95.35197 | 102 ft | 13 kts | 333° |
| 2026-04-24 07:24 | 29.98506 | -95.35278 | 102 ft | 27 kts | 332° |
| 2026-04-24 07:24 | 29.98706 | -95.35400 | 102 ft | 34 kts | 332° |
| 2026-04-24 07:24 | 29.98823 | -95.35473 | 101 ft | 15 kts | 333° |
| 2026-04-24 07:25 | 29.98882 | -95.35558 | 101 ft | 14 kts | 253° |
| 2026-04-24 07:25 | 29.98831 | -95.35670 | 104 ft | 21 kts | 241° |
| 2026-04-24 07:25 | 29.98758 | -95.35828 | 108 ft | 16 kts | 242° |
| 2026-04-24 07:25 | 29.98698 | -95.35938 | 103 ft | 7 kts | 240° |
| 2026-04-24 07:26 | 29.98694 | -95.35946 | 104 ft | 0 kts | 240° |
| 2026-04-24 07:26 | 29.98672 | -95.35991 | 102 ft | 13 kts | 240° |
| 2026-04-24 07:26 | 29.98594 | -95.36027 | 102 ft | 5 kts | 153° |
| 2026-04-24 07:26 | 29.98582 | -95.36019 | 102 ft | 0 kts | 152° |
| 2026-04-24 07:27 | 29.98551 | -95.36001 | 100 ft | 28 kts | 152° |
| 2026-04-24 07:27 | 29.98099 | -95.35724 | 100 ft | 116 kts | 152° |
| 2026-04-24 07:27 | 29.97180 | -95.35165 | 187 ft | 178 kts | 152° |
| 2026-04-24 07:27 | 29.96001 | -95.34448 | 797 ft | 204 kts | 152° |
| 2026-04-24 07:28 | 29.94672 | -95.33618 | 1727 ft | 218 kts | 154° |
| 2026-04-24 07:28 | 29.93275 | -95.32732 | 2811 ft | 240 kts | 154° |
| 2026-04-24 07:28 | 29.91818 | -95.31789 | 4224 ft | 242 kts | 154° |
| 2026-04-24 07:28 | 29.90250 | -95.30967 | 5120 ft | 249 kts | 172° |
| 2026-04-24 07:29 | 29.88554 | -95.31025 | 6124 ft | 252 kts | 197° |
| 2026-04-24 07:29 | 29.87015 | -95.32019 | 6945 ft | 260 kts | 224° |
| 2026-04-24 07:29 | 29.86025 | -95.33774 | 7849 ft | 267 kts | 250° |
| 2026-04-24 07:29 | 29.85764 | -95.35901 | 8818 ft | 273 kts | 272° |
| 2026-04-24 07:30 | 29.86279 | -95.38018 | 9786 ft | 281 kts | 296° |
| 2026-04-24 07:30 | 29.87572 | -95.39746 | 10558 ft | 297 kts | 321° |
| 2026-04-24 07:30 | 29.89535 | -95.40729 | 10996 ft | 325 kts | 347° |
| 2026-04-24 07:30 | 29.91865 | -95.40744 | 11505 ft | 344 kts | 359° |
| 2026-04-24 07:31 | 29.94297 | -95.40682 | 12082 ft | 354 kts | 357° |
| 2026-04-24 07:31 | 29.96764 | -95.40635 | 12956 ft | 355 kts | 357° |
| 2026-04-24 07:31 | 29.99245 | -95.40585 | 13748 ft | 358 kts | 357° |
| 2026-04-24 07:31 | 30.01715 | -95.40534 | 14440 ft | 362 kts | 357° |
| 2026-04-24 07:32 | 30.04251 | -95.40481 | 15082 ft | 367 kts | 357° |
| 2026-04-24 07:32 | 30.06818 | -95.40425 | 15714 ft | 372 kts | 357° |
| 2026-04-24 07:32 | 30.09386 | -95.40684 | 15984 ft | 367 kts | 340° |
| 2026-04-24 07:32 | 30.11730 | -95.41778 | 16696 ft | 364 kts | 332° |
| 2026-04-24 07:33 | 30.14062 | -95.43002 | 17284 ft | 369 kts | 331° |
| 2026-04-24 07:33 | 30.16392 | -95.44267 | 17930 ft | 372 kts | 331° |
| 2026-04-24 07:33 | 30.18742 | -95.45562 | 18494 ft | 375 kts | 330° |
| 2026-04-24 07:33 | 30.21107 | -95.46882 | 19031 ft | 378 kts | 330° |
| 2026-04-24 07:34 | 30.23482 | -95.48215 | 19573 ft | 381 kts | 330° |
| 2026-04-24 07:34 | 30.25874 | -95.49562 | 20103 ft | 384 kts | 330° |
| 2026-04-24 07:34 | 30.28286 | -95.50922 | 20644 ft | 387 kts | 329° |
| 2026-04-24 07:34 | 30.30714 | -95.52291 | 21162 ft | 391 kts | 329° |
| 2026-04-24 07:35 | 30.33137 | -95.53659 | 21654 ft | 394 kts | 329° |
| 2026-04-24 07:35 | 30.35608 | -95.55055 | 22172 ft | 396 kts | 329° |
| 2026-04-24 07:35 | 30.38098 | -95.56462 | 22639 ft | 400 kts | 329° |
| 2026-04-24 07:35 | 30.40607 | -95.57880 | 23154 ft | 403 kts | 329° |
| 2026-04-24 07:36 | 30.43136 | -95.59311 | 23606 ft | 406 kts | 329° |
| 2026-04-24 07:36 | 30.45678 | -95.60750 | 24031 ft | 408 kts | 329° |
| 2026-04-24 07:36 | 30.48230 | -95.62195 | 24481 ft | 409 kts | 329° |
| 2026-04-24 07:36 | 30.50798 | -95.63651 | 24859 ft | 411 kts | 329° |
| 2026-04-24 07:37 | 30.53379 | -95.65095 | 25282 ft | 413 kts | 330° |
| 2026-04-24 07:37 | 30.56006 | -95.66487 | 25709 ft | 415 kts | 330° |
| 2026-04-24 07:37 | 30.58636 | -95.67887 | 26131 ft | 417 kts | 330° |
| 2026-04-24 07:37 | 30.61278 | -95.69298 | 26535 ft | 419 kts | 330° |
| 2026-04-24 07:38 | 30.63935 | -95.70719 | 26971 ft | 420 kts | 330° |
| 2026-04-24 07:38 | 30.66592 | -95.72140 | 27404 ft | 421 kts | 329° |
| 2026-04-24 07:38 | 30.69225 | -95.73551 | 27796 ft | 423 kts | 329° |
| 2026-04-24 07:38 | 30.71903 | -95.74986 | 28169 ft | 425 kts | 329° |
| 2026-04-24 07:39 | 30.74595 | -95.76429 | 28547 ft | 427 kts | 329° |
| 2026-04-24 07:39 | 30.77297 | -95.77879 | 28935 ft | 428 kts | 329° |
| 2026-04-24 07:39 | 30.80009 | -95.79335 | 29288 ft | 430 kts | 329° |
| 2026-04-24 07:39 | 30.82766 | -95.80817 | 29671 ft | 432 kts | 329° |
| 2026-04-24 07:40 | 30.85474 | -95.82273 | 29987 ft | 435 kts | 329° |
| 2026-04-24 07:40 | 30.88235 | -95.83758 | 30277 ft | 437 kts | 329° |
| 2026-04-24 07:40 | 30.90998 | -95.85244 | 30637 ft | 437 kts | 329° |
| 2026-04-24 07:40 | 30.93755 | -95.86730 | 31080 ft | 435 kts | 329° |
| 2026-04-24 07:41 | 30.96490 | -95.88204 | 31560 ft | 432 kts | 329° |
| 2026-04-24 07:41 | 30.99223 | -95.89678 | 31836 ft | 432 kts | 329° |
| 2026-04-24 07:41 | 31.04628 | -95.92595 | 31854 ft | 426 kts | 329° |
| 2026-04-24 07:42 | 31.10017 | -95.95507 | 31848 ft | 426 kts | 328° |
| 2026-04-24 07:42 | 31.12784 | -95.96810 | 31838 ft | 436 kts | 339° |
| 2026-04-24 07:42 | 31.15740 | -95.97486 | 31862 ft | 440 kts | 341° |
| 2026-04-24 07:43 | 31.21768 | -95.98905 | 31850 ft | 441 kts | 341° |
| 2026-04-24 07:43 | 31.27798 | -96.00280 | 31845 ft | 441 kts | 341° |
| 2026-04-24 07:44 | 31.33826 | -96.01648 | 31847 ft | 441 kts | 342° |
| 2026-04-24 07:44 | 31.39815 | -96.03008 | 31859 ft | 442 kts | 342° |
| 2026-04-24 07:45 | 31.45858 | -96.04382 | 31842 ft | 443 kts | 342° |
| 2026-04-24 07:45 | 31.51910 | -96.05761 | 31836 ft | 443 kts | 342° |
| 2026-04-24 07:46 | 31.57962 | -96.07141 | 31839 ft | 443 kts | 342° |
| 2026-04-24 07:46 | 31.64007 | -96.08521 | 31835 ft | 443 kts | 342° |
| 2026-04-24 07:47 | 31.70083 | -96.09910 | 31832 ft | 446 kts | 341° |
| 2026-04-24 07:47 | 31.76172 | -96.11304 | 31824 ft | 446 kts | 341° |
| 2026-04-24 07:48 | 31.82261 | -96.12700 | 31826 ft | 446 kts | 341° |
| 2026-04-24 07:48 | 31.88346 | -96.14097 | 31833 ft | 446 kts | 341° |
| 2026-04-24 07:49 | 31.94437 | -96.15497 | 31845 ft | 446 kts | 342° |
| 2026-04-24 07:49 | 32.00536 | -96.16901 | 31833 ft | 447 kts | 342° |
| 2026-04-24 07:50 | 32.06604 | -96.18300 | 31833 ft | 447 kts | 342° |
| 2026-04-24 07:50 | 32.12710 | -96.19709 | 31830 ft | 447 kts | 342° |
| 2026-04-24 07:51 | 32.18837 | -96.21005 | 31748 ft | 453 kts | 349° |
| 2026-04-24 07:51 | 32.22004 | -96.21078 | 31855 ft | 456 kts | 351° |
| 2026-04-24 07:51 | 32.25184 | -96.21174 | 31786 ft | 456 kts | 350° |
| 2026-04-24 07:52 | 32.31548 | -96.21309 | 31826 ft | 459 kts | 352° |
| 2026-04-24 07:52 | 32.37879 | -96.21417 | 31807 ft | 458 kts | 352° |
| 2026-04-24 07:53 | 32.44260 | -96.21525 | 31809 ft | 458 kts | 352° |
| 2026-04-24 07:53 | 32.50634 | -96.21634 | 31809 ft | 459 kts | 352° |
| 2026-04-24 07:54 | 32.57038 | -96.21743 | 31811 ft | 459 kts | 352° |
| 2026-04-24 07:54 | 32.63385 | -96.21851 | 31812 ft | 459 kts | 352° |
| 2026-04-24 07:55 | 32.69770 | -96.21960 | 31815 ft | 459 kts | 352° |
| 2026-04-24 07:55 | 32.76164 | -96.22069 | 31826 ft | 460 kts | 352° |
| 2026-04-24 07:56 | 32.82568 | -96.22179 | 31814 ft | 461 kts | 352° |
| 2026-04-24 07:56 | 32.88977 | -96.22289 | 31806 ft | 461 kts | 352° |
| 2026-04-24 07:57 | 32.95393 | -96.22399 | 31797 ft | 461 kts | 352° |
| 2026-04-24 07:57 | 33.01804 | -96.22510 | 31811 ft | 461 kts | 353° |
| 2026-04-24 07:58 | 33.08197 | -96.22620 | 31786 ft | 463 kts | 353° |
| 2026-04-24 07:58 | 33.14642 | -96.22731 | 31775 ft | 463 kts | 353° |
| 2026-04-24 07:59 | 33.21082 | -96.22842 | 31777 ft | 463 kts | 353° |
| 2026-04-24 07:59 | 33.27522 | -96.22954 | 31775 ft | 463 kts | 353° |
| 2026-04-24 08:00 | 33.33976 | -96.23066 | 31770 ft | 463 kts | 353° |
| 2026-04-24 08:00 | 33.40417 | -96.23177 | 31770 ft | 463 kts | 353° |
| 2026-04-24 08:01 | 33.46862 | -96.23289 | 31769 ft | 463 kts | 353° |
| 2026-04-24 08:01 | 33.53312 | -96.23381 | 31782 ft | 465 kts | 357° |
| 2026-04-24 08:02 | 33.59772 | -96.22401 | 31764 ft | 469 kts | 3° |
| 2026-04-24 08:02 | 33.66241 | -96.21327 | 31758 ft | 469 kts | 3° |
| 2026-04-24 08:03 | 33.72662 | -96.20255 | 31758 ft | 469 kts | 3° |
| 2026-04-24 08:03 | 33.79135 | -96.19172 | 31750 ft | 469 kts | 3° |
| 2026-04-24 08:04 | 33.85604 | -96.18089 | 31746 ft | 469 kts | 4° |
| 2026-04-24 08:04 | 33.92069 | -96.17004 | 31745 ft | 469 kts | 4° |
| 2026-04-24 08:05 | 33.98536 | -96.15917 | 31744 ft | 469 kts | 4° |
| 2026-04-24 08:05 | 34.05002 | -96.14829 | 31744 ft | 469 kts | 4° |
| 2026-04-24 08:06 | 34.11458 | -96.13741 | 31732 ft | 468 kts | 4° |
| 2026-04-24 08:06 | 34.17911 | -96.12652 | 31740 ft | 468 kts | 4° |
| 2026-04-24 08:07 | 34.24325 | -96.11567 | 31740 ft | 468 kts | 4° |
| 2026-04-24 08:07 | 34.30781 | -96.10474 | 31725 ft | 468 kts | 4° |
| 2026-04-24 08:08 | 34.33977 | -96.09932 | 31083 ft | 461 kts | 4° |
| 2026-04-24 08:08 | 34.37143 | -96.09395 | 30238 ft | 459 kts | 4° |
| 2026-04-24 08:08 | 34.40301 | -96.08859 | 29425 ft | 455 kts | 4° |
| 2026-04-24 08:09 | 34.46610 | -96.07786 | 28209 ft | 462 kts | 4° |
| 2026-04-24 08:09 | 34.49802 | -96.07243 | 27603 ft | 464 kts | 4° |
| 2026-04-24 08:09 | 34.52998 | -96.06698 | 26992 ft | 462 kts | 4° |
| 2026-04-24 08:09 | 34.56169 | -96.06158 | 26378 ft | 459 kts | 4° |
| 2026-04-24 08:10 | 34.59245 | -96.05633 | 25808 ft | 457 kts | 4° |
| 2026-04-24 08:10 | 34.62345 | -96.05104 | 25198 ft | 455 kts | 4° |
| 2026-04-24 08:10 | 34.65477 | -96.04569 | 24594 ft | 452 kts | 4° |
| 2026-04-24 08:10 | 34.68589 | -96.04037 | 23997 ft | 450 kts | 4° |
| 2026-04-24 08:11 | 34.71675 | -96.03509 | 23410 ft | 447 kts | 4° |
| 2026-04-24 08:11 | 34.74746 | -96.02983 | 22722 ft | 444 kts | 4° |
| 2026-04-24 08:11 | 34.77796 | -96.02460 | 22114 ft | 441 kts | 4° |
| 2026-04-24 08:11 | 34.80820 | -96.01943 | 21537 ft | 438 kts | 4° |
| 2026-04-24 08:12 | 34.83833 | -96.01425 | 20962 ft | 434 kts | 4° |
| 2026-04-24 08:12 | 34.86823 | -96.00912 | 20372 ft | 431 kts | 4° |
| 2026-04-24 08:12 | 34.89775 | -96.00404 | 19520 ft | 426 kts | 4° |
| 2026-04-24 08:12 | 34.92680 | -95.99904 | 18972 ft | 414 kts | 3° |
| 2026-04-24 08:13 | 34.94552 | -95.99582 | 18621 ft | 407 kts | 3° |
| 2026-04-24 08:13 | 34.98211 | -95.98953 | 17967 ft | 399 kts | 3° |
| 2026-04-24 08:13 | 35.00997 | -95.98473 | 17389 ft | 408 kts | 3° |
| 2026-04-24 08:13 | 35.02902 | -95.98144 | 17177 ft | 411 kts | 3° |
| 2026-04-24 08:14 | 35.06648 | -95.97498 | 16613 ft | 410 kts | 3° |
| 2026-04-24 08:14 | 35.09463 | -95.97011 | 16139 ft | 406 kts | 3° |
| 2026-04-24 08:14 | 35.11356 | -95.96684 | 15821 ft | 405 kts | 3° |
| 2026-04-24 08:14 | 35.14138 | -95.96203 | 15329 ft | 403 kts | 3° |
| 2026-04-24 08:15 | 35.16901 | -95.95726 | 14837 ft | 400 kts | 3° |
| 2026-04-24 08:15 | 35.19616 | -95.95255 | 14359 ft | 398 kts | 3° |
| 2026-04-24 08:15 | 35.22352 | -95.94781 | 13905 ft | 396 kts | 3° |
| 2026-04-24 08:15 | 35.25073 | -95.94309 | 13443 ft | 394 kts | 3° |
| 2026-04-24 08:16 | 35.27779 | -95.93840 | 12925 ft | 391 kts | 3° |
| 2026-04-24 08:16 | 35.30463 | -95.93374 | 12465 ft | 388 kts | 3° |
| 2026-04-24 08:16 | 35.33128 | -95.92911 | 12001 ft | 385 kts | 3° |
| 2026-04-24 08:16 | 35.35774 | -95.92451 | 11584 ft | 382 kts | 2° |
| 2026-04-24 08:17 | 35.38391 | -95.91996 | 11225 ft | 377 kts | 2° |
| 2026-04-24 08:17 | 35.40952 | -95.91550 | 11044 ft | 366 kts | 2° |
| 2026-04-24 08:17 | 35.43407 | -95.91121 | 10866 ft | 346 kts | 2° |
| 2026-04-24 08:17 | 35.45722 | -95.90716 | 10706 ft | 327 kts | 1° |
| 2026-04-24 08:18 | 35.47932 | -95.90332 | 10561 ft | 317 kts | 1° |
| 2026-04-24 08:18 | 35.50109 | -95.89953 | 10413 ft | 315 kts | 1° |
| 2026-04-24 08:18 | 35.52279 | -95.89575 | 10272 ft | 314 kts | 1° |
| 2026-04-24 08:18 | 35.54392 | -95.89206 | 10133 ft | 313 kts | 1° |
| 2026-04-24 08:19 | 35.56551 | -95.88829 | 9952 ft | 313 kts | 1° |
| 2026-04-24 08:19 | 35.58708 | -95.88452 | 9640 ft | 314 kts | 1° |
| 2026-04-24 08:19 | 35.60846 | -95.88078 | 9275 ft | 314 kts | 1° |
| 2026-04-24 08:19 | 35.63039 | -95.87695 | 8924 ft | 314 kts | 1° |
| 2026-04-24 08:20 | 35.65172 | -95.87321 | 8584 ft | 313 kts | 1° |
| 2026-04-24 08:20 | 35.67322 | -95.86944 | 8248 ft | 312 kts | 1° |
| 2026-04-24 08:20 | 35.69463 | -95.86640 | 7902 ft | 305 kts | 352° |
| 2026-04-24 08:20 | 35.71569 | -95.86889 | 7572 ft | 298 kts | 345° |
| 2026-04-24 08:21 | 35.73599 | -95.87196 | 7275 ft | 297 kts | 345° |
| 2026-04-24 08:21 | 35.75644 | -95.87495 | 6955 ft | 295 kts | 346° |
| 2026-04-24 08:21 | 35.77680 | -95.87792 | 6643 ft | 294 kts | 346° |
| 2026-04-24 08:21 | 35.79707 | -95.88083 | 6342 ft | 293 kts | 346° |
| 2026-04-24 08:22 | 35.81730 | -95.88372 | 6015 ft | 289 kts | 346° |
| 2026-04-24 08:22 | 35.83702 | -95.88658 | 5674 ft | 281 kts | 345° |
| 2026-04-24 08:22 | 35.85612 | -95.88940 | 5405 ft | 271 kts | 344° |
| 2026-04-24 08:22 | 35.87452 | -95.89233 | 5096 ft | 264 kts | 346° |
| 2026-04-24 08:23 | 35.89264 | -95.89477 | 4825 ft | 261 kts | 346° |
| 2026-04-24 08:23 | 35.91059 | -95.89728 | 4666 ft | 258 kts | 346° |
| 2026-04-24 08:23 | 35.92860 | -95.89976 | 4580 ft | 263 kts | 349° |
| 2026-04-24 08:23 | 35.94717 | -95.89899 | 4541 ft | 268 kts | 358° |
| 2026-04-24 08:24 | 35.96562 | -95.89760 | 4328 ft | 266 kts | 357° |
| 2026-04-24 08:24 | 35.98411 | -95.89651 | 4074 ft | 264 kts | 357° |
| 2026-04-24 08:24 | 36.00212 | -95.89524 | 3735 ft | 253 kts | 357° |
| 2026-04-24 08:24 | 36.01873 | -95.89392 | 3701 ft | 227 kts | 354° |
| 2026-04-24 08:25 | 36.03452 | -95.89322 | 3497 ft | 227 kts | 356° |
| 2026-04-24 08:25 | 36.05020 | -95.89230 | 3221 ft | 224 kts | 353° |
| 2026-04-24 08:25 | 36.06569 | -95.89119 | 2964 ft | 222 kts | 356° |
| 2026-04-24 08:25 | 36.08103 | -95.89011 | 2708 ft | 219 kts | 357° |
| 2026-04-24 08:26 | 36.09625 | -95.88896 | 2397 ft | 217 kts | 355° |
| 2026-04-24 08:26 | 36.11084 | -95.88823 | 2227 ft | 201 kts | 358° |
| 2026-04-24 08:26 | 36.12393 | -95.88739 | 1998 ft | 171 kts | 1° |
| 2026-04-24 08:26 | 36.13483 | -95.88642 | 1807 ft | 145 kts | 2° |
| 2026-04-24 08:27 | 36.14486 | -95.88588 | 1578 ft | 144 kts | 360° |
| 2026-04-24 08:27 | 36.15472 | -95.88533 | 1367 ft | 144 kts | 5° |
| 2026-04-24 08:27 | 36.16485 | -95.88452 | 1120 ft | 148 kts | 4° |
| 2026-04-24 08:27 | 36.17540 | -95.88384 | 895 ft | 152 kts | 3° |
| 2026-04-24 08:28 | 36.18607 | -95.88317 | 700 ft | 155 kts | 4° |
| 2026-04-24 08:28 | 36.19538 | -95.88257 | 655 ft | 85 kts | 2° |
| 2026-04-24 08:28 | 36.19967 | -95.88227 | 651 ft | 53 kts | 3° |
| 2026-04-24 08:28 | 36.20292 | -95.88206 | 643 ft | 45 kts | 3° |
| 2026-04-24 08:29 | 36.20513 | -95.88212 | 643 ft | 26 kts | 331° |
| 2026-04-24 08:29 | 36.20614 | -95.88318 | 644 ft | 10 kts | 265° |
| 2026-04-24 08:29 | 36.20611 | -95.88328 | 643 ft | 0 kts | 235° |
| 2026-04-24 08:30 | 36.20577 | -95.88354 | 642 ft | 14 kts | 195° |
| 2026-04-24 08:30 | 36.20423 | -95.88359 | 642 ft | 30 kts | 176° |
| 2026-04-24 08:31 | 36.20234 | -95.88384 | 645 ft | 26 kts | 191° |
| 2026-04-24 08:31 | 36.20048 | -95.88460 | 649 ft | 30 kts | 199° |
| 2026-04-24 08:31 | 36.19851 | -95.88542 | 656 ft | 31 kts | 197° |
| 2026-04-24 08:31 | 36.19640 | -95.88629 | 657 ft | 33 kts | 197° |
| 2026-04-24 08:32 | 36.19493 | -95.88587 | 654 ft | 20 kts | 182° |
| 2026-04-24 08:32 | 36.19352 | -95.88626 | 657 ft | 21 kts | 216° |
| 2026-04-24 08:32 | 36.19228 | -95.88741 | 658 ft | 18 kts | 219° |
| 2026-04-24 08:32 | 36.19221 | -95.88838 | 658 ft | 4 kts | 308° |
| 2026-04-24 08:33 | 36.19226 | -95.88856 | 658 ft | 1 kts | 280° |
| 2026-04-24 08:33 | 36.19226 | -95.88859 | 658 ft | 0 kts | 279° |